Terminal Aerodrome Forecast
Issued by NWS Sterling, VA

Current Version | Previous Version | Graphics & Text | Print | Product List | Glossary On
Versions: 1 2 3 4 5 6 7 8 9 10 11 12 13 14 15 16 17 18 19 20 21 22
000
FTUS41 KLWX 301400 AAA
TAFIAD
TAF AMD
KIAD 301434Z 3015/3118 31013G22KT 6SM -SHSN BKN050
     FM301700 31018G27KT P6SM SCT025 BKN050
     FM301800 31019G29KT P6SM SCT050
     FM302200 31022G32KT P6SM FEW250
     FM310800 31015G23KT P6SM FEW250=

USA.gov is the U.S. government's official web portal to all federal, state and local government web resources and services.